Weather

BOSCOMBE DOWN (EGDM)

METAR

EGDM 271250Z 31013KT 9999 FEW045 SCT350 17/06 Q1025 NOSIG RMK BLU BLU

TAF

TAF EGDM 211948Z 2121/2212 23015G25KT 9999 BKN020 TEMPO 2121/2201 BKN012 BECMG 2201/2203 BKN010 PROB30 TEMPO 2201/2208 24020G35KT PROB40 TEMPO 2202/2210 3000 -RADZ BKN006 BECMG 2209/2211 SCT025 TEMPO 2211/2212 SCT015

BRISTOL AIRPORT (EGGD)

METAR

EGGD 271250Z AUTO 27009KT 9999 NCD 16/07 Q1026

TAF

TAF TAF EGGD 271100Z 2712/2812 31010KT 9999 FEW035 BECMG 2723/2802 01006KT

BRIZE NORTON (EGVN)

METAR

EGVN 271250Z 28008KT 9999 FEW040 17/05 Q1025 NOSIG

TAF

TAF EGVN 271043Z 2712/2812 30010KT 9999 FEW035= TAF EGXW 271048Z 2712/2806 29016G26KT 9999 SCT045 BECMG 2718/2721 30012KT

OXFORD (EGTK)

METAR

EGTK 271250Z 32010KT 240V360 9999 FEW035 17/06 Q1025

Pressure charts

Click to see pressure charts
(redidrection to MetOffice website)